CDT,Max TemperatureF,Mean TemperatureF,Min TemperatureF,Max Dew PointF,MeanDew PointF,Min DewpointF,Max Humidity, Mean Humidity, Min Humidity, Max Sea Level PressureIn, Mean Sea Level PressureIn, Min Sea Level PressureIn, Max VisibilityMiles, Mean VisibilityMiles, Min VisibilityMiles, Max Wind SpeedMPH, Mean Wind SpeedMPH, Max Gust SpeedMPH,PrecipitationIn, CloudCover, Events, WindDirDegrees
2011-10-1,55,48,42,43,40,36,93,73,51,30.31,30.26,30.17,10,10,10,17,9,25,0.00,3,,349
2011-10-2,64,52,39,47,41,36,96,76,35,30.29,30.23,30.15,10,10,10,7,4,,0.00,0,,315
2011-10-3,66,54,44,53,46,40,97,77,50,30.24,30.20,30.14,10,10,10,8,4,,0.00,0,,5
2011-10-4,71,55,41,54,48,40,97,82,45,30.31,30.25,30.22,10,10,9,8,2,,0.00,0,,283
2011-10-5,77,62,48,56,50,46,97,77,41,30.26,30.22,30.19,10,9,5,5,1,,0.01,0,,200
2011-10-6,75,62,51,58,53,48,96,71,49,30.26,30.22,30.19,10,10,9,8,4,,0.00,0,,139
2011-10-7,77,64,52,57,54,50,97,67,51,30.30,30.23,30.20,10,10,5,12,6,,0.00,0,,157
2011-10-8,80,66,52,59,55,51,97,66,42,30.30,30.25,30.21,10,10,7,16,9,22,0.00,0,,179
2011-10-9,77,62,50,56,52,48,93,73,46,30.35,30.29,30.23,10,10,8,10,5,,0.00,0,,128
2011-10-10,71,60,51,57,54,51,100,83,54,30.22,30.15,30.04,10,8,2,10,3,,0.00,0,,127
2011-10-11,73,64,54,58,56,54,100,80,57,30.04,29.97,29.88,10,9,5,10,2,,0.00,2,,120
2011-10-12,72,62,53,59,55,52,100,79,57,29.88,29.79,29.62,10,8,2,12,3,18,0.00,1,,114
2011-10-13,62,57,53,59,56,46,96,89,77,29.62,29.52,29.46,10,7,1,10,4,18,0.29,7,Rain,214
2011-10-14,60,54,48,46,40,34,86,64,44,29.65,29.56,29.49,10,10,10,15,8,29,0.00,2,,269
2011-10-15,60,53,46,39,36,34,71,54,38,29.87,29.76,29.63,10,10,10,20,11,32,0.00,1,Rain,264
2011-10-16,61,54,48,46,38,30,83,59,38,29.85,29.79,29.76,10,10,10,14,5,23,0.01,3,Rain,258
2011-10-17,57,50,43,33,32,29,65,50,36,29.83,29.81,29.77,10,10,10,13,7,26,0.00,0,,249
2011-10-18,53,46,39,43,37,32,77,69,63,29.88,29.83,29.79,10,10,10,16,7,23,0.00,4,,335
2011-10-19,48,46,43,43,40,36,89,78,66,29.81,29.72,29.57,10,9,4,23,15,37,0.82,8,Rain,8
2011-10-20,45,43,41,40,38,35,89,81,71,29.89,29.65,29.52,10,10,7,17,13,32,0.20,8,Rain,312
2011-10-21,55,45,35,36,34,32,89,70,43,30.08,30.03,29.90,10,10,10,7,4,,0.00,1,,288
2011-10-22,64,52,39,43,37,31,86,66,41,30.07,30.03,29.97,10,10,7,10,3,,0.00,0,,234
2011-10-23,66,52,37,50,42,37,100,78,36,29.99,29.92,29.81,10,6,2,13,3,26,0.14,2,Rain-Thunderstorm,246
2011-10-24,63,53,44,50,40,34,93,66,36,30.10,30.01,29.83,10,10,10,12,7,22,0.01,0,,259
2011-10-25,70,58,48,52,46,36,94,66,45,30.08,29.87,29.73,10,9,7,21,10,29,0.02,6,Rain,211
2011-10-26,51,48,45,48,42,38,90,80,71,29.97,29.91,29.78,10,10,9,13,9,25,0.00,8,,346
2011-10-27,50,40,33,40,36,33,100,86,61,30.16,30.07,29.96,10,7,1,7,3,23,0.07,4,Rain,333
2011-10-28,54,44,35,39,33,25,100,71,33,30.19,30.12,30.03,10,8,2,13,3,18,0.00,3,Rain,212
2011-10-29,55,43,30,35,31,25,92,68,34,30.14,30.06,29.99,10,10,9,10,5,16,0.00,1,,278
2011-10-30,57,42,30,44,35,27,93,71,43,30.12,30.00,29.92,10,9,4,25,10,38,0.11,5,Rain,188
2011-10-31,52,44,36,40,37,34,97,81,54,30.15,30.04,29.95,10,8,2,6,3,,0.00,3,,249